sensor_id;sensor_type;location;lat;lon;timestamp;P1;durP1;ratioP1;P2;durP2;ratioP2
17369;SDS011;8802;52.402;4.920;2023-09-19T00:00:55;4.43;;;1.45;;
17369;SDS011;8802;52.402;4.920;2023-09-19T00:03:23;3.33;;;1.17;;
17369;SDS011;8802;52.402;4.920;2023-09-19T00:05:52;5.07;;;1.10;;
17369;SDS011;8802;52.402;4.920;2023-09-19T00:08:20;5.40;;;1.52;;
17369;SDS011;8802;52.402;4.920;2023-09-19T00:10:49;3.60;;;1.00;;
17369;SDS011;8802;52.402;4.920;2023-09-19T00:13:18;6.55;;;1.75;;
17369;SDS011;8802;52.402;4.920;2023-09-19T00:15:46;4.10;;;1.40;;
17369;SDS011;8802;52.402;4.920;2023-09-19T00:18:14;4.80;;;1.30;;
17369;SDS011;8802;52.402;4.920;2023-09-19T00:20:42;4.25;;;1.60;;
17369;SDS011;8802;52.402;4.920;2023-09-19T00:23:14;6.03;;;1.60;;
17369;SDS011;8802;52.402;4.920;2023-09-19T00:25:41;3.60;;;1.23;;
17369;SDS011;8802;52.402;4.920;2023-09-19T00:28:08;5.97;;;1.40;;
17369;SDS011;8802;52.402;4.920;2023-09-19T00:30:35;5.60;;;1.65;;
17369;SDS011;8802;52.402;4.920;2023-09-19T00:33:03;4.88;;;1.42;;
17369;SDS011;8802;52.402;4.920;2023-09-19T00:35:32;7.97;;;1.70;;
17369;SDS011;8802;52.402;4.920;2023-09-19T00:37:59;5.72;;;1.83;;
17369;SDS011;8802;52.402;4.920;2023-09-19T00:40:28;3.58;;;1.25;;
17369;SDS011;8802;52.402;4.920;2023-09-19T00:42:57;5.70;;;1.60;;
17369;SDS011;8802;52.402;4.920;2023-09-19T00:45:25;4.45;;;1.17;;
17369;SDS011;8802;52.402;4.920;2023-09-19T00:47:53;4.47;;;1.30;;
17369;SDS011;8802;52.402;4.920;2023-09-19T00:50:22;6.38;;;2.03;;
17369;SDS011;8802;52.402;4.920;2023-09-19T00:52:53;4.93;;;1.27;;
17369;SDS011;8802;52.402;4.920;2023-09-19T00:55:22;5.10;;;1.42;;
17369;SDS011;8802;52.402;4.920;2023-09-19T00:57:52;7.00;;;1.50;;
17369;SDS011;8802;52.402;4.920;2023-09-19T01:00:21;6.07;;;1.65;;
17369;SDS011;8802;52.402;4.920;2023-09-19T01:02:49;6.50;;;1.63;;
17369;SDS011;8802;52.402;4.920;2023-09-19T01:05:16;6.40;;;1.77;;
17369;SDS011;8802;52.402;4.920;2023-09-19T01:07:43;5.80;;;1.73;;
17369;SDS011;8802;52.402;4.920;2023-09-19T01:10:11;5.07;;;1.83;;
17369;SDS011;8802;52.402;4.920;2023-09-19T01:12:44;4.18;;;1.50;;
17369;SDS011;8802;52.402;4.920;2023-09-19T01:15:19;4.55;;;1.50;;
17369;SDS011;8802;52.402;4.920;2023-09-19T01:17:56;4.20;;;1.40;;
17369;SDS011;8802;52.402;4.920;2023-09-19T01:20:31;4.88;;;1.65;;
17369;SDS011;8802;52.402;4.920;2023-09-19T01:23:09;5.45;;;1.27;;
17369;SDS011;8802;52.402;4.920;2023-09-19T01:28:54;5.60;;;1.30;;
17369;SDS011;8802;52.402;4.920;2023-09-19T01:31:34;3.85;;;1.38;;
17369;SDS011;8802;52.402;4.920;2023-09-19T01:34:06;5.78;;;1.50;;
17369;SDS011;8802;52.402;4.920;2023-09-19T01:36:34;6.45;;;1.42;;
17369;SDS011;8802;52.402;4.920;2023-09-19T01:39:04;3.72;;;1.42;;
17369;SDS011;8802;52.402;4.920;2023-09-19T01:41:40;5.57;;;1.60;;
17369;SDS011;8802;52.402;4.920;2023-09-19T01:44:26;6.10;;;1.65;;
17369;SDS011;8802;52.402;4.920;2023-09-19T01:47:02;4.70;;;1.90;;
17369;SDS011;8802;52.402;4.920;2023-09-19T01:49:40;6.40;;;1.63;;
17369;SDS011;8802;52.402;4.920;2023-09-19T01:52:12;5.00;;;1.58;;
17369;SDS011;8802;52.402;4.920;2023-09-19T01:54:41;11.27;;;2.00;;
17369;SDS011;8802;52.402;4.920;2023-09-19T01:57:14;5.57;;;1.33;;
17369;SDS011;8802;52.402;4.920;2023-09-19T01:59:45;7.13;;;1.80;;
17369;SDS011;8802;52.402;4.920;2023-09-19T02:02:19;6.88;;;1.60;;
17369;SDS011;8802;52.402;4.920;2023-09-19T02:04:48;6.78;;;1.58;;
17369;SDS011;8802;52.402;4.920;2023-09-19T02:07:15;5.97;;;1.80;;
17369;SDS011;8802;52.402;4.920;2023-09-19T02:09:42;5.70;;;1.52;;
17369;SDS011;8802;52.402;4.920;2023-09-19T02:12:09;9.55;;;1.88;;
17369;SDS011;8802;52.402;4.920;2023-09-19T02:14:36;7.35;;;2.00;;
17369;SDS011;8802;52.402;4.920;2023-09-19T02:17:03;6.55;;;1.63;;
17369;SDS011;8802;52.402;4.920;2023-09-19T02:19:33;5.15;;;1.58;;
17369;SDS011;8802;52.402;4.920;2023-09-19T02:22:00;6.20;;;1.98;;
17369;SDS011;8802;52.402;4.920;2023-09-19T02:24:28;7.20;;;1.80;;
17369;SDS011;8802;52.402;4.920;2023-09-19T02:26:56;8.02;;;1.58;;
17369;SDS011;8802;52.402;4.920;2023-09-19T02:29:24;5.32;;;1.75;;
17369;SDS011;8802;52.402;4.920;2023-09-19T02:31:51;8.27;;;1.95;;
17369;SDS011;8802;52.402;4.920;2023-09-19T02:34:21;5.57;;;1.50;;
17369;SDS011;8802;52.402;4.920;2023-09-19T02:36:49;5.65;;;1.67;;
17369;SDS011;8802;52.402;4.920;2023-09-19T02:39:18;9.13;;;1.73;;
17369;SDS011;8802;52.402;4.920;2023-09-19T02:41:45;5.55;;;1.73;;
17369;SDS011;8802;52.402;4.920;2023-09-19T02:44:12;7.68;;;1.45;;
17369;SDS011;8802;52.402;4.920;2023-09-19T02:46:39;5.90;;;1.60;;
17369;SDS011;8802;52.402;4.920;2023-09-19T02:49:07;7.53;;;2.03;;
17369;SDS011;8802;52.402;4.920;2023-09-19T02:51:34;7.18;;;1.70;;
17369;SDS011;8802;52.402;4.920;2023-09-19T02:54:02;7.47;;;1.75;;
17369;SDS011;8802;52.402;4.920;2023-09-19T02:56:29;5.65;;;1.50;;
17369;SDS011;8802;52.402;4.920;2023-09-19T02:58:57;6.25;;;1.52;;
17369;SDS011;8802;52.402;4.920;2023-09-19T03:01:25;6.00;;;1.52;;
17369;SDS011;8802;52.402;4.920;2023-09-19T03:03:53;7.72;;;1.45;;
17369;SDS011;8802;52.402;4.920;2023-09-19T03:06:20;5.95;;;1.38;;
17369;SDS011;8802;52.402;4.920;2023-09-19T03:08:49;5.60;;;1.73;;
17369;SDS011;8802;52.402;4.920;2023-09-19T03:11:18;8.55;;;1.98;;
17369;SDS011;8802;52.402;4.920;2023-09-19T03:13:50;7.00;;;2.10;;
17369;SDS011;8802;52.402;4.920;2023-09-19T03:16:18;5.15;;;1.60;;
17369;SDS011;8802;52.402;4.920;2023-09-19T03:18:46;7.72;;;1.70;;
17369;SDS011;8802;52.402;4.920;2023-09-19T03:21:14;5.75;;;1.70;;
17369;SDS011;8802;52.402;4.920;2023-09-19T03:23:42;5.53;;;1.55;;
17369;SDS011;8802;52.402;4.920;2023-09-19T03:26:10;8.57;;;1.80;;
17369;SDS011;8802;52.402;4.920;2023-09-19T03:28:40;7.07;;;1.70;;
17369;SDS011;8802;52.402;4.920;2023-09-19T03:31:07;4.88;;;1.70;;
17369;SDS011;8802;52.402;4.920;2023-09-19T03:33:35;8.50;;;1.55;;
17369;SDS011;8802;52.402;4.920;2023-09-19T03:36:02;6.90;;;1.85;;
17369;SDS011;8802;52.402;4.920;2023-09-19T03:38:31;7.07;;;1.77;;
17369;SDS011;8802;52.402;4.920;2023-09-19T03:40:59;8.35;;;1.73;;
17369;SDS011;8802;52.402;4.920;2023-09-19T03:43:26;7.88;;;2.50;;
17369;SDS011;8802;52.402;4.920;2023-09-19T03:45:54;4.85;;;1.33;;
17369;SDS011;8802;52.402;4.920;2023-09-19T03:48:21;7.47;;;1.83;;
17369;SDS011;8802;52.402;4.920;2023-09-19T03:50:48;7.22;;;2.03;;
17369;SDS011;8802;52.402;4.920;2023-09-19T03:53:15;4.00;;;1.52;;
17369;SDS011;8802;52.402;4.920;2023-09-19T03:55:44;4.90;;;1.83;;
17369;SDS011;8802;52.402;4.920;2023-09-19T03:58:11;4.70;;;1.20;;
17369;SDS011;8802;52.402;4.920;2023-09-19T04:00:38;6.05;;;1.73;;
17369;SDS011;8802;52.402;4.920;2023-09-19T04:03:06;4.18;;;1.60;;
17369;SDS011;8802;52.402;4.920;2023-09-19T04:05:34;5.18;;;1.50;;
17369;SDS011;8802;52.402;4.920;2023-09-19T04:08:00;6.40;;;1.30;;
17369;SDS011;8802;52.402;4.920;2023-09-19T04:10:27;8.98;;;1.75;;
17369;SDS011;8802;52.402;4.920;2023-09-19T04:12:55;5.45;;;1.40;;
17369;SDS011;8802;52.402;4.920;2023-09-19T04:15:22;3.95;;;1.48;;
17369;SDS011;8802;52.402;4.920;2023-09-19T04:17:49;6.38;;;1.73;;
17369;SDS011;8802;52.402;4.920;2023-09-19T04:20:18;4.97;;;1.73;;
17369;SDS011;8802;52.402;4.920;2023-09-19T04:22:47;6.07;;;1.40;;
17369;SDS011;8802;52.402;4.920;2023-09-19T04:25:14;10.23;;;1.90;;
17369;SDS011;8802;52.402;4.920;2023-09-19T04:27:41;7.05;;;1.70;;
17369;SDS011;8802;52.402;4.920;2023-09-19T04:30:08;6.65;;;1.73;;
17369;SDS011;8802;52.402;4.920;2023-09-19T04:32:37;6.80;;;1.92;;
17369;SDS011;8802;52.402;4.920;2023-09-19T04:35:05;4.78;;;1.48;;
17369;SDS011;8802;52.402;4.920;2023-09-19T04:37:36;7.70;;;1.65;;
17369;SDS011;8802;52.402;4.920;2023-09-19T04:40:05;5.28;;;1.83;;
17369;SDS011;8802;52.402;4.920;2023-09-19T04:42:37;7.10;;;1.60;;
17369;SDS011;8802;52.402;4.920;2023-09-19T04:45:05;7.03;;;1.80;;
17369;SDS011;8802;52.402;4.920;2023-09-19T04:47:34;6.30;;;1.70;;
17369;SDS011;8802;52.402;4.920;2023-09-19T04:50:05;7.22;;;1.85;;
17369;SDS011;8802;52.402;4.920;2023-09-19T04:52:38;6.70;;;1.85;;
17369;SDS011;8802;52.402;4.920;2023-09-19T04:55:07;6.50;;;1.88;;
17369;SDS011;8802;52.402;4.920;2023-09-19T04:57:35;8.38;;;2.45;;
17369;SDS011;8802;52.402;4.920;2023-09-19T05:00:04;6.68;;;1.80;;
17369;SDS011;8802;52.402;4.920;2023-09-19T05:02:37;3.97;;;1.70;;
17369;SDS011;8802;52.402;4.920;2023-09-19T05:05:05;5.00;;;1.27;;
17369;SDS011;8802;52.402;4.920;2023-09-19T05:07:33;5.50;;;1.52;;
17369;SDS011;8802;52.402;4.920;2023-09-19T05:10:02;7.90;;;2.00;;
17369;SDS011;8802;52.402;4.920;2023-09-19T05:12:32;6.25;;;1.90;;
17369;SDS011;8802;52.402;4.920;2023-09-19T05:14:59;4.70;;;1.70;;
17369;SDS011;8802;52.402;4.920;2023-09-19T05:17:28;4.85;;;1.40;;
17369;SDS011;8802;52.402;4.920;2023-09-19T05:19:55;4.93;;;1.40;;
17369;SDS011;8802;52.402;4.920;2023-09-19T05:22:22;5.10;;;1.50;;
17369;SDS011;8802;52.402;4.920;2023-09-19T05:24:50;6.38;;;1.60;;
17369;SDS011;8802;52.402;4.920;2023-09-19T05:27:19;3.88;;;1.30;;
17369;SDS011;8802;52.402;4.920;2023-09-19T05:29:46;4.63;;;1.65;;
17369;SDS011;8802;52.402;4.920;2023-09-19T05:32:14;7.32;;;2.03;;
17369;SDS011;8802;52.402;4.920;2023-09-19T05:34:41;8.55;;;1.70;;
17369;SDS011;8802;52.402;4.920;2023-09-19T05:37:07;7.28;;;1.50;;
17369;SDS011;8802;52.402;4.920;2023-09-19T05:39:34;5.35;;;1.60;;
17369;SDS011;8802;52.402;4.920;2023-09-19T05:42:02;7.15;;;1.80;;
17369;SDS011;8802;52.402;4.920;2023-09-19T05:44:31;5.55;;;1.40;;
17369;SDS011;8802;52.402;4.920;2023-09-19T05:46:58;5.68;;;1.60;;
17369;SDS011;8802;52.402;4.920;2023-09-19T05:49:25;5.68;;;1.30;;
17369;SDS011;8802;52.402;4.920;2023-09-19T05:51:52;7.68;;;2.05;;
17369;SDS011;8802;52.402;4.920;2023-09-19T05:54:21;8.02;;;2.13;;
17369;SDS011;8802;52.402;4.920;2023-09-19T05:56:48;7.10;;;2.30;;
17369;SDS011;8802;52.402;4.920;2023-09-19T05:59:18;5.32;;;1.95;;
17369;SDS011;8802;52.402;4.920;2023-09-19T06:01:46;4.88;;;1.55;;
17369;SDS011;8802;52.402;4.920;2023-09-19T06:04:13;8.30;;;1.90;;
17369;SDS011;8802;52.402;4.920;2023-09-19T06:06:40;10.52;;;2.15;;
17369;SDS011;8802;52.402;4.920;2023-09-19T06:09:07;6.00;;;1.85;;
17369;SDS011;8802;52.402;4.920;2023-09-19T06:11:34;5.70;;;1.80;;
17369;SDS011;8802;52.402;4.920;2023-09-19T06:14:01;7.75;;;2.00;;
17369;SDS011;8802;52.402;4.920;2023-09-19T06:16:28;6.85;;;2.10;;
17369;SDS011;8802;52.402;4.920;2023-09-19T06:18:56;6.03;;;1.80;;
17369;SDS011;8802;52.402;4.920;2023-09-19T06:21:23;7.85;;;1.80;;
17369;SDS011;8802;52.402;4.920;2023-09-19T06:23:51;6.93;;;1.85;;
17369;SDS011;8802;52.402;4.920;2023-09-19T06:26:19;8.88;;;1.92;;
17369;SDS011;8802;52.402;4.920;2023-09-19T06:28:46;6.30;;;1.70;;
17369;SDS011;8802;52.402;4.920;2023-09-19T06:31:13;7.57;;;2.33;;
17369;SDS011;8802;52.402;4.920;2023-09-19T06:33:40;9.23;;;1.80;;
17369;SDS011;8802;52.402;4.920;2023-09-19T06:36:09;5.57;;;1.92;;
17369;SDS011;8802;52.402;4.920;2023-09-19T06:38:36;4.28;;;1.83;;
17369;SDS011;8802;52.402;4.920;2023-09-19T06:41:04;5.72;;;1.63;;
17369;SDS011;8802;52.402;4.920;2023-09-19T06:43:32;7.25;;;2.17;;
17369;SDS011;8802;52.402;4.920;2023-09-19T06:46:00;6.25;;;1.92;;
17369;SDS011;8802;52.402;4.920;2023-09-19T06:48:27;7.93;;;1.92;;
17369;SDS011;8802;52.402;4.920;2023-09-19T06:50:55;5.03;;;1.70;;
17369;SDS011;8802;52.402;4.920;2023-09-19T06:53:25;7.68;;;1.80;;
17369;SDS011;8802;52.402;4.920;2023-09-19T06:55:52;6.82;;;1.65;;
17369;SDS011;8802;52.402;4.920;2023-09-19T06:58:19;7.13;;;2.03;;
17369;SDS011;8802;52.402;4.920;2023-09-19T07:00:46;6.63;;;2.08;;
17369;SDS011;8802;52.402;4.920;2023-09-19T07:03:15;7.65;;;1.95;;
17369;SDS011;8802;52.402;4.920;2023-09-19T07:05:43;6.70;;;2.47;;
17369;SDS011;8802;52.402;4.920;2023-09-19T07:08:10;9.68;;;2.28;;
17369;SDS011;8802;52.402;4.920;2023-09-19T07:10:39;9.57;;;2.25;;
17369;SDS011;8802;52.402;4.920;2023-09-19T07:13:07;10.05;;;2.03;;
17369;SDS011;8802;52.402;4.920;2023-09-19T07:15:36;6.18;;;1.83;;
17369;SDS011;8802;52.402;4.920;2023-09-19T07:18:07;7.47;;;2.30;;
17369;SDS011;8802;52.402;4.920;2023-09-19T07:20:36;8.93;;;2.28;;
17369;SDS011;8802;52.402;4.920;2023-09-19T07:23:03;7.82;;;2.53;;
17369;SDS011;8802;52.402;4.920;2023-09-19T07:25:31;9.50;;;2.42;;
17369;SDS011;8802;52.402;4.920;2023-09-19T07:27:59;10.23;;;2.70;;
17369;SDS011;8802;52.402;4.920;2023-09-19T07:30:26;8.30;;;2.30;;
17369;SDS011;8802;52.402;4.920;2023-09-19T07:32:54;6.82;;;2.10;;
17369;SDS011;8802;52.402;4.920;2023-09-19T07:35:21;9.13;;;2.40;;
17369;SDS011;8802;52.402;4.920;2023-09-19T07:37:48;8.02;;;2.42;;
17369;SDS011;8802;52.402;4.920;2023-09-19T07:40:16;7.88;;;2.45;;
17369;SDS011;8802;52.402;4.920;2023-09-19T07:42:43;6.60;;;2.20;;
17369;SDS011;8802;52.402;4.920;2023-09-19T07:45:13;11.60;;;2.38;;
17369;SDS011;8802;52.402;4.920;2023-09-19T07:47:43;8.38;;;2.28;;
17369;SDS011;8802;52.402;4.920;2023-09-19T07:50:11;11.80;;;2.72;;
17369;SDS011;8802;52.402;4.920;2023-09-19T07:52:38;8.23;;;3.03;;
17369;SDS011;8802;52.402;4.920;2023-09-19T07:55:06;10.80;;;2.60;;
17369;SDS011;8802;52.402;4.920;2023-09-19T07:57:35;12.55;;;2.72;;
17369;SDS011;8802;52.402;4.920;2023-09-19T08:00:03;12.23;;;2.92;;
17369;SDS011;8802;52.402;4.920;2023-09-19T08:02:35;13.18;;;3.08;;
17369;SDS011;8802;52.402;4.920;2023-09-19T08:05:03;8.88;;;2.92;;
17369;SDS011;8802;52.402;4.920;2023-09-19T08:07:34;10.23;;;2.42;;
17369;SDS011;8802;52.402;4.920;2023-09-19T08:10:01;11.85;;;2.55;;
17369;SDS011;8802;52.402;4.920;2023-09-19T08:12:29;9.80;;;3.13;;
17369;SDS011;8802;52.402;4.920;2023-09-19T08:14:56;12.48;;;2.78;;
17369;SDS011;8802;52.402;4.920;2023-09-19T08:17:23;10.70;;;2.92;;
17369;SDS011;8802;52.402;4.920;2023-09-19T08:19:51;13.68;;;2.88;;
17369;SDS011;8802;52.402;4.920;2023-09-19T08:22:19;7.43;;;2.30;;
17369;SDS011;8802;52.402;4.920;2023-09-19T08:24:46;7.25;;;2.85;;
17369;SDS011;8802;52.402;4.920;2023-09-19T08:27:14;10.52;;;2.38;;
17369;SDS011;8802;52.402;4.920;2023-09-19T08:29:43;7.82;;;2.47;;
17369;SDS011;8802;52.402;4.920;2023-09-19T08:32:11;12.57;;;3.25;;
17369;SDS011;8802;52.402;4.920;2023-09-19T08:34:39;8.07;;;2.30;;
17369;SDS011;8802;52.402;4.920;2023-09-19T08:37:08;10.95;;;2.35;;
17369;SDS011;8802;52.402;4.920;2023-09-19T08:39:35;8.95;;;2.58;;
17369;SDS011;8802;52.402;4.920;2023-09-19T08:42:03;8.18;;;2.58;;
17369;SDS011;8802;52.402;4.920;2023-09-19T08:44:30;10.88;;;2.75;;
17369;SDS011;8802;52.402;4.920;2023-09-19T08:47:08;10.15;;;3.13;;
17369;SDS011;8802;52.402;4.920;2023-09-19T08:49:39;8.88;;;2.40;;
17369;SDS011;8802;52.402;4.920;2023-09-19T08:52:16;11.05;;;3.13;;
17369;SDS011;8802;52.402;4.920;2023-09-19T08:54:48;12.30;;;2.80;;
17369;SDS011;8802;52.402;4.920;2023-09-19T08:57:18;12.25;;;2.80;;
17369;SDS011;8802;52.402;4.920;2023-09-19T08:59:47;9.82;;;2.85;;
17369;SDS011;8802;52.402;4.920;2023-09-19T09:02:15;6.90;;;2.67;;
17369;SDS011;8802;52.402;4.920;2023-09-19T09:04:44;12.02;;;3.22;;
17369;SDS011;8802;52.402;4.920;2023-09-19T09:07:14;10.73;;;2.40;;
17369;SDS011;8802;52.402;4.920;2023-09-19T09:09:44;9.90;;;2.53;;
17369;SDS011;8802;52.402;4.920;2023-09-19T09:12:12;8.25;;;2.80;;
17369;SDS011;8802;52.402;4.920;2023-09-19T09:14:40;10.63;;;2.72;;
17369;SDS011;8802;52.402;4.920;2023-09-19T09:17:10;10.55;;;2.85;;
17369;SDS011;8802;52.402;4.920;2023-09-19T09:19:37;12.65;;;2.90;;
17369;SDS011;8802;52.402;4.920;2023-09-19T09:22:06;9.02;;;2.80;;
17369;SDS011;8802;52.402;4.920;2023-09-19T09:24:35;10.85;;;2.88;;
17369;SDS011;8802;52.402;4.920;2023-09-19T09:27:05;8.23;;;2.70;;
17369;SDS011;8802;52.402;4.920;2023-09-19T09:29:40;11.80;;;2.42;;
17369;SDS011;8802;52.402;4.920;2023-09-19T09:32:18;11.35;;;2.63;;
17369;SDS011;8802;52.402;4.920;2023-09-19T09:34:46;12.32;;;2.83;;
17369;SDS011;8802;52.402;4.920;2023-09-19T09:37:15;8.65;;;2.72;;
17369;SDS011;8802;52.402;4.920;2023-09-19T09:39:55;9.57;;;2.85;;
17369;SDS011;8802;52.402;4.920;2023-09-19T09:42:28;6.72;;;2.63;;
17369;SDS011;8802;52.402;4.920;2023-09-19T09:45:12;7.93;;;3.15;;
17369;SDS011;8802;52.402;4.920;2023-09-19T09:47:43;9.43;;;3.15;;
17369;SDS011;8802;52.402;4.920;2023-09-19T09:50:26;10.48;;;2.72;;
17369;SDS011;8802;52.402;4.920;2023-09-19T09:53:22;8.63;;;2.85;;
17369;SDS011;8802;52.402;4.920;2023-09-19T09:56:01;10.35;;;2.70;;
17369;SDS011;8802;52.402;4.920;2023-09-19T09:58:31;9.90;;;2.75;;
17369;SDS011;8802;52.402;4.920;2023-09-19T10:00:59;10.25;;;3.42;;
17369;SDS011;8802;52.402;4.920;2023-09-19T10:03:33;13.75;;;2.80;;
17369;SDS011;8802;52.402;4.920;2023-09-19T10:06:08;10.23;;;2.55;;
17369;SDS011;8802;52.402;4.920;2023-09-19T10:08:59;10.02;;;2.85;;
17369;SDS011;8802;52.402;4.920;2023-09-19T10:11:37;11.38;;;3.00;;
17369;SDS011;8802;52.402;4.920;2023-09-19T10:14:08;10.98;;;2.95;;
17369;SDS011;8802;52.402;4.920;2023-09-19T10:16:37;11.55;;;3.13;;
17369;SDS011;8802;52.402;4.920;2023-09-19T10:19:11;10.90;;;3.10;;
17369;SDS011;8802;52.402;4.920;2023-09-19T10:21:42;9.68;;;2.33;;
17369;SDS011;8802;52.402;4.920;2023-09-19T10:24:11;9.75;;;2.97;;
17369;SDS011;8802;52.402;4.920;2023-09-19T10:26:42;10.65;;;3.03;;
17369;SDS011;8802;52.402;4.920;2023-09-19T10:29:11;7.82;;;2.45;;
17369;SDS011;8802;52.402;4.920;2023-09-19T10:31:42;10.93;;;2.70;;
17369;SDS011;8802;52.402;4.920;2023-09-19T10:34:12;12.02;;;2.92;;
17369;SDS011;8802;52.402;4.920;2023-09-19T10:36:44;7.70;;;2.30;;
17369;SDS011;8802;52.402;4.920;2023-09-19T10:39:12;11.10;;;2.90;;
17369;SDS011;8802;52.402;4.920;2023-09-19T10:41:45;11.35;;;2.90;;
17369;SDS011;8802;52.402;4.920;2023-09-19T10:44:19;11.43;;;2.33;;
17369;SDS011;8802;52.402;4.920;2023-09-19T10:46:50;5.43;;;2.00;;
17369;SDS011;8802;52.402;4.920;2023-09-19T10:49:18;9.32;;;2.45;;
17369;SDS011;8802;52.402;4.920;2023-09-19T10:51:45;7.65;;;2.10;;
17369;SDS011;8802;52.402;4.920;2023-09-19T10:54:15;7.82;;;2.25;;
17369;SDS011;8802;52.402;4.920;2023-09-19T10:56:48;8.55;;;2.20;;
17369;SDS011;8802;52.402;4.920;2023-09-19T10:59:17;8.55;;;1.90;;
17369;SDS011;8802;52.402;4.920;2023-09-19T11:01:46;8.73;;;2.70;;
17369;SDS011;8802;52.402;4.920;2023-09-19T11:04:23;9.80;;;2.13;;
17369;SDS011;8802;52.402;4.920;2023-09-19T11:07:03;7.57;;;2.25;;
17369;SDS011;8802;52.402;4.920;2023-09-19T11:09:46;6.32;;;1.92;;
17369;SDS011;8802;52.402;4.920;2023-09-19T11:24:31;6.25;;;1.80;;
17369;SDS011;8802;52.402;4.920;2023-09-19T11:27:11;4.68;;;1.63;;
17369;SDS011;8802;52.402;4.920;2023-09-19T11:29:41;6.03;;;2.03;;
17369;SDS011;8802;52.402;4.920;2023-09-19T11:32:08;4.50;;;1.75;;
17369;SDS011;8802;52.402;4.920;2023-09-19T11:34:42;8.43;;;1.77;;
17369;SDS011;8802;52.402;4.920;2023-09-19T11:40:33;5.80;;;1.80;;
17369;SDS011;8802;52.402;4.920;2023-09-19T11:43:00;5.10;;;2.22;;
17369;SDS011;8802;52.402;4.920;2023-09-19T11:46:04;7.32;;;2.13;;
17369;SDS011;8802;52.402;4.920;2023-09-19T11:48:31;8.27;;;1.55;;
17369;SDS011;8802;52.402;4.920;2023-09-19T11:51:00;5.65;;;1.58;;
17369;SDS011;8802;52.402;4.920;2023-09-19T11:53:32;7.80;;;1.77;;
17369;SDS011;8802;52.402;4.920;2023-09-19T11:56:01;8.30;;;1.90;;
17369;SDS011;8802;52.402;4.920;2023-09-19T11:58:29;4.30;;;1.50;;
17369;SDS011;8802;52.402;4.920;2023-09-19T12:00:58;6.15;;;1.40;;
17369;SDS011;8802;52.402;4.920;2023-09-19T12:03:31;6.95;;;1.83;;
17369;SDS011;8802;52.402;4.920;2023-09-19T12:05:58;4.88;;;1.48;;
17369;SDS011;8802;52.402;4.920;2023-09-19T12:08:27;4.55;;;1.70;;
17369;SDS011;8802;52.402;4.920;2023-09-19T12:10:55;5.85;;;1.73;;
17369;SDS011;8802;52.402;4.920;2023-09-19T12:13:23;4.13;;;1.65;;
17369;SDS011;8802;52.402;4.920;2023-09-19T12:15:50;4.55;;;1.65;;
17369;SDS011;8802;52.402;4.920;2023-09-19T12:18:27;3.33;;;1.50;;
17369;SDS011;8802;52.402;4.920;2023-09-19T12:20:56;7.45;;;1.70;;
17369;SDS011;8802;52.402;4.920;2023-09-19T12:23:24;5.95;;;1.63;;
17369;SDS011;8802;52.402;4.920;2023-09-19T12:25:51;6.32;;;1.50;;
17369;SDS011;8802;52.402;4.920;2023-09-19T12:28:22;6.50;;;1.50;;
17369;SDS011;8802;52.402;4.920;2023-09-19T12:30:53;4.75;;;1.30;;
17369;SDS011;8802;52.402;4.920;2023-09-19T12:33:21;4.47;;;1.50;;
17369;SDS011;8802;52.402;4.920;2023-09-19T12:35:50;3.95;;;1.67;;
17369;SDS011;8802;52.402;4.920;2023-09-19T12:38:26;4.53;;;1.65;;
17369;SDS011;8802;52.402;4.920;2023-09-19T12:40:54;5.15;;;1.52;;
17369;SDS011;8802;52.402;4.920;2023-09-19T12:43:24;4.82;;;1.75;;
17369;SDS011;8802;52.402;4.920;2023-09-19T12:45:52;4.65;;;1.60;;
17369;SDS011;8802;52.402;4.920;2023-09-19T12:48:20;3.97;;;1.80;;
17369;SDS011;8802;52.402;4.920;2023-09-19T12:51:03;6.00;;;1.98;;
17369;SDS011;8802;52.402;4.920;2023-09-19T12:53:34;5.75;;;1.55;;
17369;SDS011;8802;52.402;4.920;2023-09-19T12:56:05;6.78;;;2.22;;
17369;SDS011;8802;52.402;4.920;2023-09-19T12:58:33;4.20;;;1.52;;
17369;SDS011;8802;52.402;4.920;2023-09-19T13:01:13;4.20;;;1.45;;
17369;SDS011;8802;52.402;4.920;2023-09-19T13:03:40;6.07;;;1.80;;
17369;SDS011;8802;52.402;4.920;2023-09-19T13:06:07;4.25;;;1.70;;
17369;SDS011;8802;52.402;4.920;2023-09-19T13:08:36;9.43;;;2.10;;
17369;SDS011;8802;52.402;4.920;2023-09-19T13:11:10;5.32;;;1.90;;
17369;SDS011;8802;52.402;4.920;2023-09-19T13:13:39;5.60;;;2.00;;
17369;SDS011;8802;52.402;4.920;2023-09-19T13:16:09;6.10;;;2.08;;
17369;SDS011;8802;52.402;4.920;2023-09-19T13:18:43;5.88;;;1.70;;
17369;SDS011;8802;52.402;4.920;2023-09-19T13:21:11;4.47;;;1.75;;
17369;SDS011;8802;52.402;4.920;2023-09-19T13:23:48;5.50;;;2.10;;
17369;SDS011;8802;52.402;4.920;2023-09-19T13:26:16;11.30;;;2.15;;
17369;SDS011;8802;52.402;4.920;2023-09-19T13:28:43;5.80;;;2.08;;
17369;SDS011;8802;52.402;4.920;2023-09-19T13:31:13;4.60;;;1.80;;
17369;SDS011;8802;52.402;4.920;2023-09-19T13:33:43;4.10;;;1.80;;
17369;SDS011;8802;52.402;4.920;2023-09-19T13:36:10;6.25;;;2.03;;
17369;SDS011;8802;52.402;4.920;2023-09-19T13:38:38;5.18;;;1.80;;
17369;SDS011;8802;52.402;4.920;2023-09-19T13:41:06;7.68;;;2.05;;
17369;SDS011;8802;52.402;4.920;2023-09-19T13:43:35;7.15;;;2.17;;
17369;SDS011;8802;52.402;4.920;2023-09-19T13:46:02;6.05;;;2.05;;
17369;SDS011;8802;52.402;4.920;2023-09-19T13:48:29;4.00;;;1.92;;
17369;SDS011;8802;52.402;4.920;2023-09-19T13:50:56;4.88;;;1.63;;
17369;SDS011;8802;52.402;4.920;2023-09-19T13:53:23;7.05;;;2.47;;
17369;SDS011;8802;52.402;4.920;2023-09-19T13:55:51;6.95;;;2.00;;
17369;SDS011;8802;52.402;4.920;2023-09-19T13:58:19;3.22;;;1.70;;
17369;SDS011;8802;52.402;4.920;2023-09-19T14:00:46;7.35;;;2.28;;
17369;SDS011;8802;52.402;4.920;2023-09-19T14:03:13;5.90;;;2.22;;
17369;SDS011;8802;52.402;4.920;2023-09-19T14:05:40;6.20;;;2.05;;
17369;SDS011;8802;52.402;4.920;2023-09-19T14:08:08;4.75;;;2.17;;
17369;SDS011;8802;52.402;4.920;2023-09-19T14:10:35;6.28;;;2.67;;
17369;SDS011;8802;52.402;4.920;2023-09-19T14:13:02;6.95;;;2.10;;
17369;SDS011;8802;52.402;4.920;2023-09-19T14:15:31;5.50;;;2.20;;
17369;SDS011;8802;52.402;4.920;2023-09-19T14:18:00;5.25;;;1.92;;
17369;SDS011;8802;52.402;4.920;2023-09-19T14:20:27;6.78;;;2.42;;
17369;SDS011;8802;52.402;4.920;2023-09-19T14:22:54;4.65;;;1.92;;
17369;SDS011;8802;52.402;4.920;2023-09-19T14:25:21;5.78;;;2.20;;
17369;SDS011;8802;52.402;4.920;2023-09-19T14:27:48;6.70;;;2.33;;
17369;SDS011;8802;52.402;4.920;2023-09-19T14:30:15;7.28;;;2.25;;
17369;SDS011;8802;52.402;4.920;2023-09-19T14:32:43;5.60;;;2.70;;
17369;SDS011;8802;52.402;4.920;2023-09-19T14:35:10;7.30;;;2.25;;
17369;SDS011;8802;52.402;4.920;2023-09-19T14:37:40;9.43;;;2.60;;
17369;SDS011;8802;52.402;4.920;2023-09-19T14:40:07;7.47;;;2.60;;
17369;SDS011;8802;52.402;4.920;2023-09-19T14:42:35;6.10;;;2.10;;
17369;SDS011;8802;52.402;4.920;2023-09-19T14:45:05;7.60;;;2.60;;
17369;SDS011;8802;52.402;4.920;2023-09-19T14:47:33;7.65;;;2.70;;
17369;SDS011;8802;52.402;4.920;2023-09-19T14:50:03;8.40;;;2.67;;
17369;SDS011;8802;52.402;4.920;2023-09-19T14:52:31;7.53;;;3.00;;
17369;SDS011;8802;52.402;4.920;2023-09-19T14:54:59;9.50;;;3.00;;
17369;SDS011;8802;52.402;4.920;2023-09-19T14:57:27;7.45;;;2.65;;
17369;SDS011;8802;52.402;4.920;2023-09-19T14:59:54;7.43;;;2.15;;
17369;SDS011;8802;52.402;4.920;2023-09-19T15:02:21;6.72;;;2.40;;
17369;SDS011;8802;52.402;4.920;2023-09-19T15:04:48;5.20;;;2.28;;
17369;SDS011;8802;52.402;4.920;2023-09-19T15:07:17;8.55;;;2.45;;
17369;SDS011;8802;52.402;4.920;2023-09-19T15:09:44;5.22;;;2.22;;
17369;SDS011;8802;52.402;4.920;2023-09-19T15:12:12;5.55;;;2.40;;
17369;SDS011;8802;52.402;4.920;2023-09-19T15:14:40;6.00;;;2.53;;
17369;SDS011;8802;52.402;4.920;2023-09-19T15:17:07;4.88;;;2.30;;
17369;SDS011;8802;52.402;4.920;2023-09-19T15:19:34;8.05;;;2.63;;
17369;SDS011;8802;52.402;4.920;2023-09-19T15:22:03;6.70;;;2.10;;
17369;SDS011;8802;52.402;4.920;2023-09-19T15:24:32;6.00;;;2.58;;
17369;SDS011;8802;52.402;4.920;2023-09-19T15:26:59;6.90;;;2.88;;
17369;SDS011;8802;52.402;4.920;2023-09-19T15:29:26;5.97;;;2.67;;
17369;SDS011;8802;52.402;4.920;2023-09-19T15:31:54;5.63;;;2.67;;